Time;durP1;ratioP1;P1;durP2;ratioP2;P2;SDS_P1;SDS_P2;PMS_P1;PMS_P2;Temp;Humidity;BMP_temperature;BMP_pressure;BME280_temperature;BME280_humidity;BME280_pressure;Samples;Min_cycle;Max_cycle;Signal;HPM_P1;HPM_P2
2022/07/27 00:02:01;;;;;;;;;4.00;4.00;;;;;21.56;49.79;101392.25;4939548;28;45074;-61
2022/07/27 00:04:26;;;;;;;;;11.33;9.67;;;;;21.66;49.98;101402.09;4939466;28;45735;-65
2022/07/27 00:06:52;;;;;;;;;5.67;3.67;;;;;21.51;49.99;101384.13;4932652;28;45028;-60
2022/07/27 00:09:18;;;;;;;;;5.00;4.67;;;;;21.67;49.90;101406.66;4942486;28;45023;-61
2022/07/27 00:11:44;;;;;;;;;3.33;2.33;;;;;21.66;50.11;101405.75;4939689;28;45243;-60
2022/07/27 00:14:09;;;;;;;;;2.67;2.67;;;;;21.70;50.01;101412.06;4941511;28;45556;-62
2022/07/27 00:16:35;;;;;;;;;9.00;7.67;;;;;21.65;50.33;101403.03;4941842;28;45340;-61
2022/07/27 00:19:00;;;;;;;;;3.67;3.00;;;;;21.60;50.28;101410.34;4957955;28;45087;-59
2022/07/27 00:21:26;;;;;;;;;2.67;2.33;;;;;21.15;50.32;101327.31;4944456;28;45195;-59
2022/07/27 00:23:52;;;;;;;;;2.00;2.00;;;;;21.54;50.31;101392.25;4936957;28;45275;-64
2022/07/27 00:26:18;;;;;;;;;3.67;3.67;;;;;21.62;50.38;101406.69;4945572;28;45215;-64
2022/07/27 00:28:43;;;;;;;;;5.00;3.00;;;;;21.61;50.56;101399.44;4937644;28;44868;-61
2022/07/27 00:31:08;;;;;;;;;3.33;3.33;;;;;21.68;50.36;101406.63;4939203;28;44864;-60
2022/07/27 00:33:34;;;;;;;;;2.00;2.00;;;;;21.54;50.37;101395.84;4920519;28;46291;-64
2022/07/27 00:36:01;;;;;;;;;4.33;4.00;;;;;21.43;50.50;101366.94;4934230;28;45017;-62
2022/07/27 00:38:26;;;;;;;;;2.33;2.33;;;;;21.56;50.93;101401.28;4933975;28;45054;-61
2022/07/27 00:40:52;;;;;;;;;2.00;2.00;;;;;21.58;50.70;101404.00;4934432;28;45206;-60
2022/07/27 00:43:18;;;;;;;;;3.33;2.33;;;;;21.58;50.56;101406.72;4933901;28;45323;-61
2022/07/27 00:45:43;;;;;;;;;3.00;3.00;;;;;21.46;50.97;101395.00;4934154;28;44936;-66
2022/07/27 00:48:09;;;;;;;;;2.33;2.33;;;;;21.54;50.95;101397.69;4939266;28;45542;-62
2022/07/27 00:50:36;;;;;;;;;2.33;2.33;;;;;21.57;50.91;101402.22;4938017;28;45241;-60
2022/07/27 00:53:03;;;;;;;;;2.00;2.00;;;;;21.56;50.90;101404.00;4938159;28;45550;-60
2022/07/27 00:55:31;;;;;;;;;2.00;2.00;;;;;21.40;50.97;101378.75;4933628;28;44914;-60
2022/07/27 00:57:57;;;;;;;;;4.33;2.00;;;;;21.52;50.94;101400.41;4930970;28;45362;-59
2022/07/27 01:00:22;;;;;;;;;3.67;1.33;;;;;21.41;51.08;101380.53;4925202;28;45604;-60
2022/07/27 01:02:47;;;;;;;;;2.00;2.00;;;;;21.44;51.09;101398.66;4922737;28;46137;-59
2022/07/27 01:05:13;;;;;;;;;4.67;4.67;;;;;21.22;51.15;101357.13;4927861;28;45516;-60
2022/07/27 01:07:39;;;;;;;;;5.33;3.67;;;;;21.42;51.41;101404.09;4918217;28;45763;-60
2022/07/27 01:10:05;;;;;;;;;7.00;4.00;;;;;21.35;51.42;101397.81;4927874;28;45449;-61
2022/07/27 01:12:31;;;;;;;;;2.00;2.00;;;;;21.29;52.00;101395.13;4917781;28;45975;-59
2022/07/27 01:14:57;;;;;;;;;4.00;3.00;;;;;21.26;51.91;101395.16;4917799;28;45537;-60
2022/07/27 01:17:24;;;;;;;;;6.33;3.67;;;;;21.21;52.03;101396.13;4927015;28;45509;-59
2022/07/27 01:19:50;;;;;;;;;5.00;5.00;;;;;21.15;52.11;101378.94;4925808;28;45470;-59
2022/07/27 01:22:16;;;;;;;;;5.00;4.00;;;;;21.21;52.14;101390.69;4917797;28;45395;-60
2022/07/27 01:24:41;;;;;;;;;4.00;2.00;;;;;21.13;52.08;101377.13;4920137;28;45564;-61
2022/07/27 01:27:06;;;;;;;;;6.00;4.33;;;;;21.16;52.39;101383.44;4925119;28;45371;-66
2022/07/27 01:29:33;;;;;;;;;4.00;2.67;;;;;21.14;52.15;101384.38;4926532;28;45482;-62
2022/07/27 01:31:59;;;;;;;;;5.33;3.00;;;;;20.72;52.18;101305.91;4917689;28;46505;-59
2022/07/27 01:34:24;;;;;;;;;5.00;3.67;;;;;21.14;52.38;101371.69;4917599;28;45608;-62
2022/07/27 01:36:50;;;;;;;;;3.33;2.00;;;;;21.11;52.24;101366.28;4918201;28;45372;-60
2022/07/27 01:39:17;;;;;;;;;3.00;3.00;;;;;21.06;52.36;101362.69;4926954;28;45461;-62
2022/07/27 01:41:43;;;;;;;;;5.33;3.00;;;;;21.10;52.51;101369.00;4919326;28;45468;-62
2022/07/27 01:44:09;;;;;;;;;1.67;1.67;;;;;21.00;52.60;101351.88;4918295;28;45327;-60
2022/07/27 01:46:34;;;;;;;;;3.67;3.67;;;;;21.03;52.39;101369.97;4917643;28;45610;-60
2022/07/27 01:49:00;;;;;;;;;2.00;2.00;;;;;20.95;52.52;101360.06;4930809;28;45485;-60
2022/07/27 01:51:26;;;;;;;;;1.67;1.67;;;;;21.03;52.45;101379.00;4917382;28;45393;-62
2022/07/27 01:53:51;;;;;;;;;4.00;3.00;;;;;21.05;52.49;101376.28;4918352;28;45507;-59
2022/07/27 01:56:17;;;;;;;;;3.00;3.00;;;;;21.02;52.82;101365.44;4931515;28;45387;-66
2022/07/27 01:58:42;;;;;;;;;3.00;3.00;;;;;21.01;52.83;101374.53;4925274;28;46122;-67
2022/07/27 02:01:08;;;;;;;;;3.00;2.33;;;;;21.01;52.84;101380.84;4917822;28;45386;-65
2022/07/27 02:03:34;;;;;;;;;2.00;2.00;;;;;20.98;52.61;101362.75;4917212;28;45630;-70
2022/07/27 02:06:00;;;;;;;;;2.67;2.67;;;;;20.81;52.84;101334.81;4917400;28;45348;-60
2022/07/27 02:08:26;;;;;;;;;4.00;3.00;;;;;20.95;52.86;101368.22;4917641;28;45522;-61
2022/07/27 02:13:36;;;;;;;;;2.67;2.67;;;;;20.27;53.04;101245.50;4918493;28;45677;-61
2022/07/27 02:16:01;;;;;;;;;2.67;2.67;;;;;20.92;52.91;101364.59;4920960;28;45355;-60
2022/07/27 02:18:27;;;;;;;;;9.00;4.33;;;;;20.90;52.79;101367.31;4930731;28;45562;-61
2022/07/27 02:20:53;;;;;;;;;3.00;3.00;;;;;20.78;52.95;101360.16;4917082;28;45366;-61
2022/07/27 02:23:18;;;;;;;;;2.67;2.67;;;;;20.74;53.09;101352.97;4917029;28;45578;-69
2022/07/27 02:25:43;;;;;;;;;4.33;3.00;;;;;20.73;53.10;101352.97;4917469;28;45344;-59
2022/07/27 02:28:09;;;;;;;;;5.67;4.00;;;;;20.49;53.21;101313.25;4913480;28;45454;-59
2022/07/27 02:30:35;;;;;;;;;2.67;2.67;;;;;20.76;53.18;101370.13;4918442;28;46312;-68
2022/07/27 02:33:00;;;;;;;;;6.67;5.00;;;;;20.74;53.21;101377.41;4926739;28;45823;-61
2022/07/27 02:35:26;;;;;;;;;4.00;4.00;;;;;20.60;53.41;101346.66;4916834;28;45379;-61
2022/07/27 02:37:51;;;;;;;;;3.00;3.00;;;;;20.70;53.28;101362.00;4924928;28;45563;-61
2022/07/27 02:40:17;;;;;;;;;6.00;3.00;;;;;20.74;52.98;101374.69;4920931;28;45526;-62
2022/07/27 02:42:44;;;;;;;;;4.67;3.00;;;;;20.72;53.14;101381.00;4916933;28;45456;-59
2022/07/27 02:45:09;;;;;;;;;4.67;3.00;;;;;20.69;52.99;101373.81;4917042;28;45569;-59
2022/07/27 02:47:34;;;;;;;;;2.33;2.33;;;;;20.67;52.99;101375.59;4918853;28;45295;-64
2022/07/27 02:50:03;;;;;;;;;5.00;2.67;;;;;20.58;52.99;101362.97;4924614;28;46107;-63
2022/07/27 02:52:29;;;;;;;;;2.67;2.00;;;;;20.68;52.90;101372.00;4920211;28;45351;-60
2022/07/27 02:54:54;;;;;;;;;4.33;4.00;;;;;20.66;53.01;101376.53;4925975;28;45427;-65
2022/07/27 02:57:20;;;;;;;;;4.67;2.00;;;;;20.51;53.04;101354.84;4916897;28;45385;-62
2022/07/27 02:59:45;;;;;;;;;2.67;2.00;;;;;20.61;52.97;101372.91;4907245;28;46014;-60
2022/07/27 03:02:11;;;;;;;;;2.33;1.33;;;;;20.17;52.84;101303.44;4921991;28;45293;-70
2022/07/27 03:04:36;;;;;;;;;5.00;5.00;;;;;20.56;52.91;101372.03;4921297;28;45516;-64
2022/07/27 03:07:02;;;;;;;;;3.33;3.33;;;;;20.40;52.97;101344.06;4924120;28;45456;-64
2022/07/27 03:09:27;;;;;;;;;4.33;2.67;;;;;20.47;53.20;101363.94;4916713;28;46405;-64
2022/07/27 03:11:52;;;;;;;;;5.00;5.00;;;;;20.24;53.11;101327.84;4917892;28;45584;-61
2022/07/27 03:14:18;;;;;;;;;5.00;4.00;;;;;20.39;53.26;101358.53;4917801;28;45426;-61
2022/07/27 03:16:44;;;;;;;;;3.67;2.67;;;;;20.37;53.25;101360.34;4921314;28;45437;-63
2022/07/27 03:19:09;;;;;;;;;5.00;3.00;;;;;20.36;53.17;101355.81;4926313;28;45966;-61
2022/07/27 03:21:34;;;;;;;;;3.00;3.00;;;;;20.27;53.06;101345.91;4919532;28;45743;-71
2022/07/27 03:23:59;;;;;;;;;6.67;4.33;;;;;20.29;53.09;101363.09;4916578;28;45429;-62
2022/07/27 03:26:25;;;;;;;;;2.67;2.00;;;;;20.23;53.04;101365.84;4916700;28;45589;-60
2022/07/27 03:28:50;;;;;;;;;5.67;4.00;;;;;20.08;53.10;101328.81;4926573;28;45692;-62
2022/07/27 03:31:15;;;;;;;;;4.00;2.33;;;;;20.22;53.06;101347.75;4916086;28;45462;-61
2022/07/27 03:33:41;;;;;;;;;3.00;3.00;;;;;20.29;53.11;101354.94;4916200;28;45304;-66
2022/07/27 03:36:06;;;;;;;;;3.00;3.00;;;;;20.28;52.99;101363.09;4908189;28;45511;-64
2022/07/27 03:38:32;;;;;;;;;4.00;4.00;;;;;20.12;53.05;101337.84;4913615;28;46314;-61
2022/07/27 03:40:57;;;;;;;;;3.33;3.33;;;;;20.27;53.08;101366.72;4924042;28;45498;-61
2022/07/27 03:43:22;;;;;;;;;5.00;3.67;;;;;20.19;53.06;101362.22;4911728;28;45529;-66
2022/07/27 03:45:48;;;;;;;;;2.67;2.00;;;;;20.07;53.24;101349.59;4922568;28;45476;-67
2022/07/27 03:48:14;;;;;;;;;7.33;2.00;;;;;20.11;53.08;101361.34;4916007;28;45353;-62
2022/07/27 03:50:39;;;;;;;;;4.00;4.00;;;;;20.09;53.26;101360.44;4915887;28;45402;-60
2022/07/27 03:53:04;;;;;;;;;3.00;3.00;;;;;20.05;53.39;101362.28;4915893;28;45367;-61
2022/07/27 03:55:30;;;;;;;;;3.00;3.00;;;;;19.98;53.31;101363.22;4916889;28;45580;-68
2022/07/27 03:57:56;;;;;;;;;4.67;3.00;;;;;20.09;53.25;101360.44;4928070;28;45979;-62
2022/07/27 04:00:21;;;;;;;;;4.33;3.33;;;;;20.06;52.82;101366.81;4918042;28;45649;-60
2022/07/27 04:02:47;;;;;;;;;3.67;3.67;;;;;20.00;53.01;101365.91;4918849;28;45548;-60
2022/07/27 04:05:13;;;;;;;;;3.67;3.00;;;;;19.94;53.25;101355.06;4919681;28;45236;-69
2022/07/27 04:07:39;;;;;;;;;4.00;4.00;;;;;19.85;53.39;101358.72;4919176;28;46058;-62
2022/07/27 04:10:06;;;;;;;;;2.00;2.00;;;;;19.66;53.44;101325.28;4919205;28;45462;-60
2022/07/27 04:12:34;;;;;;;;;3.33;2.00;;;;;19.88;53.33;101362.31;4933335;28;45651;-65
2022/07/27 04:14:59;;;;;;;;;3.00;2.67;;;;;19.79;53.10;101346.06;4919373;28;45569;-60
2022/07/27 04:17:25;;;;;;;;;3.33;3.00;;;;;19.84;53.20;101365.03;4926855;28;46425;-66
2022/07/27 04:19:50;;;;;;;;;3.67;3.67;;;;;19.65;53.16;101331.59;4923222;28;45583;-63
2022/07/27 04:22:15;;;;;;;;;2.33;2.33;;;;;19.80;53.10;101358.72;4919170;28;45503;-60
2022/07/27 04:24:41;;;;;;;;;1.33;1.33;;;;;19.23;53.67;101260.31;4919160;28;45555;-61
2022/07/27 04:27:06;;;;;;;;;7.67;2.67;;;;;19.80;53.26;101357.81;4918712;28;46418;-59
2022/07/27 04:29:31;;;;;;;;;9.33;3.33;;;;;19.29;52.98;101271.13;4926234;28;45226;-60
2022/07/27 04:31:57;;;;;;;;;3.00;2.33;;;;;19.78;53.13;101365.03;4918709;28;45427;-60
2022/07/27 04:34:22;;;;;;;;;6.67;2.33;;;;;19.71;52.96;101364.13;4919262;28;45395;-60
2022/07/27 04:36:48;;;;;;;;;5.00;4.00;;;;;19.68;52.87;101361.41;4924510;28;51942;-62
2022/07/27 04:39:14;;;;;;;;;3.00;3.00;;;;;19.33;53.15;101311.75;4918637;28;45525;-63
2022/07/27 04:41:39;;;;;;;;;2.33;2.33;;;;;19.58;53.13;101363.22;4919319;28;45913;-69
2022/07/27 04:44:04;;;;;;;;;2.67;2.67;;;;;19.61;53.28;101367.75;4918879;28;45335;-63
2022/07/27 04:46:30;;;;;;;;;3.67;3.67;;;;;19.56;52.81;101358.72;4923616;28;48013;-62
2022/07/27 04:48:55;;;;;;;;;3.33;3.33;;;;;19.59;52.96;101367.75;4924551;28;45522;-59
2022/07/27 04:51:21;;;;;;;;;4.33;4.33;;;;;19.61;52.54;101365.94;4929801;28;45482;-60
2022/07/27 04:53:47;;;;;;;;;5.00;3.00;;;;;19.57;52.85;101361.44;4918723;28;45420;-61
2022/07/27 04:56:12;;;;;;;;;3.33;2.00;;;;;19.37;52.71;101328.94;4918386;28;45649;-60
2022/07/27 04:58:37;;;;;;;;;3.67;3.67;;;;;19.56;52.58;101356.91;4918204;28;45513;-63
2022/07/27 05:01:03;;;;;;;;;1.67;1.67;;;;;19.54;52.86;101357.84;4918203;28;45458;-65
2022/07/27 05:03:28;;;;;;;;;2.00;2.00;;;;;19.55;52.79;101367.75;4918358;28;46432;-67
2022/07/27 05:05:54;;;;;;;;;2.67;2.67;;;;;19.55;52.73;101365.97;4918004;28;46223;-60
2022/07/27 05:08:20;;;;;;;;;3.33;3.00;;;;;19.56;52.52;101370.47;4929635;28;45383;-61
2022/07/27 05:10:46;;;;;;;;;11.00;9.67;;;;;19.57;52.49;101371.34;4922990;28;45505;-67
2022/07/27 05:13:11;;;;;;;;;7.00;5.00;;;;;19.42;52.50;101339.75;4923973;28;45320;-60
2022/07/27 05:15:38;;;;;;;;;16.00;11.00;;;;;19.48;52.28;101347.88;4918082;28;45458;-61
2022/07/27 05:18:03;;;;;;;;;39.50;34.25;;;;;19.62;51.99;101375.00;4930938;28;45390;-61
2022/07/27 05:20:28;;;;;;;;;16.00;12.25;;;;;19.62;52.12;101369.56;4917827;28;45384;-70
2022/07/27 05:22:54;;;;;;;;;12.33;11.67;;;;;19.65;51.93;101370.47;4918264;28;45398;-61
2022/07/27 05:25:20;;;;;;;;;4.33;4.33;;;;;19.70;51.46;101375.88;4917494;28;45524;-63
2022/07/27 05:27:46;;;;;;;;;5.00;3.67;;;;;19.68;51.59;101375.88;4926985;28;45514;-68
2022/07/27 05:30:12;;;;;;;;;5.67;4.00;;;;;19.72;51.66;101382.19;4917796;28;45562;-69
2022/07/27 05:32:37;;;;;;;;;7.00;5.67;;;;;19.70;51.44;101375.88;4926589;28;45545;-65
2022/07/27 05:35:03;;;;;;;;;4.00;4.00;;;;;19.72;51.61;101384.91;4917560;28;46567;-72
2022/07/27 05:37:29;;;;;;;;;2.00;1.00;;;;;19.74;51.69;101384.91;4917792;28;45467;-60
2022/07/27 05:39:54;;;;;;;;;3.00;2.00;;;;;19.73;51.18;101388.50;4917932;28;45564;-71
2022/07/27 05:42:19;;;;;;;;;4.67;0.00;;;;;19.61;51.19;101362.34;4927065;28;45249;-71
2022/07/27 05:44:45;;;;;;;;;4.00;4.00;;;;;19.63;50.98;101371.34;4922422;28;45949;-65
2022/07/27 05:47:10;;;;;;;;;6.00;4.33;;;;;19.75;51.23;101387.66;4929190;28;45188;-70
2022/07/27 05:49:35;;;;;;;;;4.00;4.00;;;;;19.73;51.04;101385.81;4931397;28;45406;-65
2022/07/27 05:52:01;;;;;;;;;4.00;4.00;;;;;19.61;51.05;101381.31;4932696;28;45423;-64
2022/07/27 05:54:26;;;;;;;;;6.67;6.67;;;;;19.76;51.13;101389.44;4939770;28;45548;-72
2022/07/27 05:56:51;;;;;;;;;4.00;4.00;;;;;19.74;50.97;101393.03;4926087;28;45596;-71
2022/07/27 05:59:17;;;;;;;;;12.33;11.33;;;;;19.68;50.93;101392.16;4926257;28;45473;-72
2022/07/27 06:01:42;;;;;;;;;6.00;3.00;;;;;19.47;51.06;101348.81;4935658;28;45267;-69
2022/07/27 06:04:08;;;;;;;;;5.00;1.33;;;;;19.62;51.00;101381.31;4933936;28;45684;-71
2022/07/27 06:09:17;;;;;;;;;15.67;14.00;;;;;19.74;50.68;101396.66;4936696;28;45071;-66
2022/07/27 06:11:42;;;;;;;;;42.00;37.00;;;;;19.74;50.88;101393.94;4931037;28;45561;-63
2022/07/27 06:14:08;;;;;;;;;5.33;3.67;;;;;19.62;50.67;101370.47;4931041;28;45368;-70
2022/07/27 06:16:34;;;;;;;;;12.67;11.67;;;;;19.80;50.50;101401.19;4943815;28;45396;-70
2022/07/27 06:18:59;;;;;;;;;6.00;4.33;;;;;19.76;50.64;101394.88;4944722;28;45247;-66
2022/07/27 06:21:26;;;;;;;;;5.00;5.00;;;;;19.72;50.45;101375.88;4922873;28;45084;-60
2022/07/27 06:23:53;;;;;;;;;6.00;4.00;;;;;19.87;50.36;101400.28;4952596;28;45178;-61
2022/07/27 06:26:18;;;;;;;;;5.00;5.00;;;;;19.71;50.18;101372.25;4931342;28;45458;-65
2022/07/27 06:28:44;;;;;;;;;22.25;19.50;;;;;19.93;50.18;101402.06;4926869;28;45598;-64
2022/07/27 06:31:09;;;;;;;;;8.33;5.33;;;;;19.94;49.94;101402.06;4919170;28;45293;-65
2022/07/27 06:33:34;;;;;;;;;5.00;5.00;;;;;20.02;50.05;101405.66;4916443;28;45232;-68
2022/07/27 06:36:00;;;;;;;;;6.33;6.33;;;;;20.11;49.91;101401.13;4917661;28;45276;-68
2022/07/27 06:38:26;;;;;;;;;4.33;4.33;;;;;20.16;49.61;101394.81;4932524;28;47065;-69
2022/07/27 06:40:53;;;;;;;;;7.00;4.33;;;;;20.13;49.81;101399.31;4923052;28;45578;-62
2022/07/27 06:43:23;;;;;;;;;3.33;3.33;;;;;20.13;49.42;101396.59;4915817;28;45498;-68
2022/07/27 06:45:48;;;;;;;;;14.33;11.00;;;;;20.09;49.57;101379.44;4915816;28;45395;-60
2022/07/27 06:48:15;;;;;;;;;7.33;5.00;;;;;20.25;49.08;101396.56;4924670;28;45481;-70
2022/07/27 06:50:41;;;;;;;;;6.00;4.00;;;;;20.35;49.41;101406.50;4926774;28;45630;-67
2022/07/27 06:53:06;;;;;;;;;12.67;6.33;;;;;20.41;49.09;101406.47;4934798;28;45858;-66
2022/07/27 06:55:31;;;;;;;;;15.25;13.00;;;;;20.47;48.86;101413.69;4922493;28;45532;-64
2022/07/27 06:57:57;;;;;;;;;10.67;7.67;;;;;20.51;48.84;101407.34;4924925;28;45460;-67
2022/07/27 07:00:22;;;;;;;;;14.33;8.00;;;;;20.61;48.55;101408.22;4915306;28;45500;-70
2022/07/27 07:02:53;;;;;;;;;4.00;3.00;;;;;20.71;48.42;101410.00;4914750;28;45527;-64
2022/07/27 07:05:19;;;;;;;;;9.00;7.00;;;;;20.79;48.37;101408.16;4918249;28;45598;-66
2022/07/27 07:07:44;;;;;;;;;8.67;8.67;;;;;20.85;48.46;101409.91;4927267;28;45292;-69
2022/07/27 07:10:12;;;;;;;;;10.33;7.33;;;;;20.87;47.93;101408.13;4927560;28;45481;-61
2022/07/27 07:12:38;;;;;;;;;4.67;4.33;;;;;21.04;48.08;101420.69;4913908;28;46411;-67
2022/07/27 07:15:03;;;;;;;;;10.67;7.67;;;;;21.02;47.99;101430.63;4913388;28;45592;-61
2022/07/27 07:17:29;;;;;;;;;10.33;7.00;;;;;20.96;47.96;101402.59;4923573;28;45480;-65
2022/07/27 07:19:54;;;;;;;;;7.33;6.67;;;;;21.08;47.85;101426.06;4919460;28;45319;-69
2022/07/27 07:22:19;;;;;;;;;8.00;7.67;;;;;21.01;47.71;101407.13;4925292;28;45940;-68
2022/07/27 07:24:45;;;;;;;;;6.33;6.33;;;;;21.06;47.99;101410.72;4913751;28;46125;-64
2022/07/27 07:27:10;;;;;;;;;3.33;3.33;;;;;21.21;47.62;101412.41;4914342;28;45471;-66
2022/07/27 07:29:36;;;;;;;;;6.00;6.00;;;;;21.32;47.24;101418.69;4909880;28;45510;-66
2022/07/27 07:32:01;;;;;;;;;6.33;5.00;;;;;21.16;47.38;101386.16;4917494;28;45833;-67
2022/07/27 07:34:28;;;;;;;;;5.00;5.00;;;;;21.44;47.08;101429.44;4918065;28;45339;-68
2022/07/27 07:36:54;;;;;;;;;7.00;7.00;;;;;21.48;46.96;101417.69;4919357;28;45553;-70
2022/07/27 07:39:19;;;;;;;;;17.75;12.50;;;;;21.36;46.84;101390.56;4919163;28;45321;-61
2022/07/27 07:41:45;;;;;;;;;8.00;8.00;;;;;21.52;46.90;101400.41;4918896;28;45534;-60
2022/07/27 07:44:10;;;;;;;;;10.67;5.67;;;;;21.75;46.61;101431.97;4919132;28;45503;-64
2022/07/27 07:46:36;;;;;;;;;6.00;5.00;;;;;21.73;46.29;101414.75;4918936;28;45283;-66
2022/07/27 07:49:02;;;;;;;;;10.33;9.67;;;;;21.79;46.37;101421.94;4918932;28;45594;-69
2022/07/27 07:51:27;;;;;;;;;5.00;5.00;;;;;21.95;46.23;101422.72;4918519;28;46424;-69
2022/07/27 07:53:53;;;;;;;;;6.00;5.33;;;;;21.64;46.15;101393.97;4914026;28;45594;-67
2022/07/27 07:56:18;;;;;;;;;10.33;6.33;;;;;21.85;46.49;101414.63;4908624;28;45571;-64
2022/07/27 07:58:43;;;;;;;;;6.67;6.00;;;;;21.81;46.04;101387.47;4926686;28;45486;-62
2022/07/27 08:01:11;;;;;;;;;5.00;3.00;;;;;22.02;45.89;101397.22;4921597;28;46212;-65
2022/07/27 08:03:36;;;;;;;;;8.67;5.33;;;;;22.22;45.51;101411.53;4939923;28;45325;-69
2022/07/27 08:06:01;;;;;;;;;8.67;4.67;;;;;22.13;45.51;101383.53;4921855;28;45632;-64
2022/07/27 08:08:27;;;;;;;;;8.00;6.33;;;;;22.38;45.42;101408.66;4918630;28;45389;-67
2022/07/27 08:10:52;;;;;;;;;8.67;5.33;;;;;22.47;45.20;101413.09;4914487;28;47288;-63
2022/07/27 08:13:17;;;;;;;;;7.67;6.00;;;;;22.24;44.93;101379.75;4918527;28;45391;-68
2022/07/27 08:15:43;;;;;;;;;5.00;5.00;;;;;22.38;45.37;101389.59;4932156;28;45410;-66
2022/07/27 08:18:08;;;;;;;;;7.00;7.00;;;;;22.50;44.92;101408.50;4917928;28;45240;-64
2022/07/27 08:20:34;;;;;;;;;8.67;6.33;;;;;22.59;44.89;101415.66;4918613;28;45959;-70
2022/07/27 08:22:59;;;;;;;;;11.00;8.00;;;;;22.69;44.76;101409.16;4918354;28;45498;-68
2022/07/27 08:25:25;;;;;;;;;8.00;6.33;;;;;22.63;44.34;101376.56;4923455;28;45357;-62
2022/07/27 08:27:50;;;;;;;;;9.00;9.00;;;;;22.39;44.28;101331.47;4927238;28;45455;-66
2022/07/27 08:30:16;;;;;;;;;8.33;8.00;;;;;22.83;44.28;101406.25;4918307;28;46390;-70
2022/07/27 08:32:46;;;;;;;;;6.33;6.33;;;;;22.93;44.24;101404.28;4918292;28;45360;-69
2022/07/27 08:35:14;;;;;;;;;10.00;9.00;;;;;22.97;43.81;101401.50;4918193;28;45477;-71
2022/07/27 08:37:39;;;;;;;;;14.00;14.00;;;;;23.06;44.11;101403.19;4918432;28;45422;-65
2022/07/27 08:40:05;;;;;;;;;6.67;5.67;;;;;23.00;43.49;101376.94;4918392;28;45879;-66
2022/07/27 08:42:31;;;;;;;;;9.00;8.00;;;;;23.24;43.40;101403.88;4918263;28;45330;-64
2022/07/27 08:44:57;;;;;;;;;7.00;5.00;;;;;23.33;43.10;101401.91;4917312;28;45532;-68
2022/07/27 08:47:23;;;;;;;;;6.67;6.67;;;;;23.50;42.82;101404.34;4918178;28;45485;-63
2022/07/27 08:49:48;;;;;;;;;8.67;6.00;;;;;23.62;42.33;101405.97;4910455;28;46151;-62
2022/07/27 08:52:14;;;;;;;;;7.00;5.00;;;;;23.35;42.30;101341.91;4921863;28;45447;-61
2022/07/27 08:54:40;;;;;;;;;7.33;7.00;;;;;23.78;42.14;101394.78;4917660;28;45469;-62
2022/07/27 08:57:08;;;;;;;;;9.00;7.67;;;;;23.53;42.27;101343.41;4917576;28;45410;-62
2022/07/27 08:59:34;;;;;;;;;8.67;7.67;;;;;23.92;41.72;101399.09;4917475;28;45459;-65
2022/07/27 09:01:59;;;;;;;;;6.33;5.00;;;;;23.89;41.49;101400.97;4917728;28;45423;-66
2022/07/27 09:04:25;;;;;;;;;8.33;5.67;;;;;23.96;41.55;101399.94;4917835;28;45284;-62
2022/07/27 09:06:50;;;;;;;;;8.33;6.67;;;;;23.69;40.98;101333.09;4918085;28;45732;-67
2022/07/27 09:09:19;;;;;;;;;9.67;9.00;;;;;24.08;41.29;101391.50;4917270;28;46193;-62
2022/07/27 09:12:06;;;;;;;;;7.33;7.33;;;;;24.08;40.81;101386.03;4917652;28;45531;-64
2022/07/27 09:14:34;;;;;;;;;8.33;7.00;;;;;24.26;39.54;101394.81;4917317;28;45334;-64
2022/07/27 09:17:20;;;;;;;;;7.33;6.00;;;;;24.37;39.60;101397.31;4923269;28;45475;-62
2022/07/27 09:19:57;;;;;;;;;8.33;8.33;;;;;24.32;39.78;101391.97;4922496;28;45805;-72
2022/07/27 09:22:46;;;;;;;;;8.00;6.33;;;;;24.34;39.63;101398.28;4917451;28;45315;-64
2022/07/27 09:25:14;;;;;;;;;16.67;12.67;;;;;24.43;40.18;101402.66;4917732;28;45592;-65
2022/07/27 09:27:41;;;;;;;;;18.33;15.00;;;;;24.51;39.10;101399.75;4917420;28;45514;-67
2022/07/27 09:30:10;;;;;;;;;9.00;8.33;;;;;24.62;38.65;101398.63;4917066;28;45337;-63
2022/07/27 09:32:36;;;;;;;;;8.33;7.33;;;;;24.73;38.60;101394.75;4908005;28;45655;-65
2022/07/27 09:35:22;;;;;;;;;9.33;9.00;;;;;24.73;37.97;101384.75;4923128;28;45336;-66
2022/07/27 09:37:48;;;;;;;;;6.67;5.00;;;;;24.83;38.62;101396.34;4918483;28;45409;-61
2022/07/27 09:40:20;;;;;;;;;6.67;6.33;;;;;24.89;38.33;101396.22;4918389;28;45445;-64
2022/07/27 09:42:46;;;;;;;;;8.00;5.33;;;;;24.92;38.18;101398.88;4917720;28;45479;-73
2022/07/27 09:45:32;;;;;;;;;5.33;5.33;;;;;24.83;37.87;101366.28;4917201;28;45412;-62
2022/07/27 09:48:11;;;;;;;;;5.33;5.00;;;;;24.85;36.90;101356.22;4917512;28;45312;-67
2022/07/27 09:50:40;;;;;;;;;5.00;5.00;;;;;25.17;37.25;101393.72;4913009;28;47442;-62
2022/07/27 09:53:18;;;;;;;;;4.00;4.00;;;;;25.10;37.27;101372.06;4908258;28;45512;-67
2022/07/27 09:55:54;;;;;;;;;6.67;6.00;;;;;25.15;37.84;101372.84;4919823;28;45336;-69
2022/07/27 09:58:19;;;;;;;;;5.67;5.33;;;;;25.13;37.55;101372.88;4917150;28;45431;-65
2022/07/27 10:00:55;;;;;;;;;5.33;4.00;;;;;25.20;37.50;101373.63;4917502;28;46117;-71
2022/07/27 10:03:21;;;;;;;;;17.67;14.00;;;;;25.28;36.70;101387.16;4919281;28;45573;-71
2022/07/27 10:05:47;;;;;;;;;5.33;4.67;;;;;25.38;36.52;101372.31;4918236;28;45536;-73
2022/07/27 10:08:12;;;;;;;;;9.67;6.33;;;;;25.44;36.57;101374.88;4917983;28;45331;-68
2022/07/27 10:10:39;;;;;;;;;6.67;6.00;;;;;25.33;36.50;101375.16;4916950;28;46447;-71
2022/07/27 10:13:04;;;;;;;;;7.33;5.33;;;;;25.13;36.42;101348.25;4916180;28;45244;-66
2022/07/27 10:15:30;;;;;;;;;9.67;7.67;;;;;25.28;36.49;101374.38;4916342;28;45874;-68
2022/07/27 10:18:04;;;;;;;;;10.00;9.33;;;;;25.25;36.49;101365.31;4929983;28;45477;-69
2022/07/27 10:20:31;;;;;;;;;6.33;5.00;;;;;24.95;36.21;101297.66;4928729;28;46994;-67
2022/07/27 10:22:57;;;;;;;;;5.33;5.33;;;;;25.39;36.25;101376.81;4916174;28;45519;-63
2022/07/27 10:25:25;;;;;;;;;5.00;3.33;;;;;25.28;36.33;101347.00;4916230;28;45491;-66
2022/07/27 10:28:16;;;;;;;;;9.67;7.00;;;;;25.48;36.26;101371.13;4916786;28;45612;-68
2022/07/27 10:30:42;;;;;;;;;3.67;3.00;;;;;25.50;35.38;101371.06;4914157;28;45379;-73
2022/07/27 10:33:15;;;;;;;;;14.67;12.33;;;;;25.53;35.94;101371.91;4916114;28;45538;-68
2022/07/27 10:35:41;;;;;;;;;18.67;15.33;;;;;25.59;35.41;101358.97;4915807;28;45491;-70
2022/07/27 10:38:17;;;;;;;;;13.00;11.00;;;;;25.67;33.81;101349.66;4915791;28;45565;-67
2022/07/27 10:40:43;;;;;;;;;5.33;4.00;;;;;25.79;33.84;101359.38;4898655;28;46285;-65
2022/07/27 10:43:28;;;;;;;;;4.00;4.00;;;;;25.87;33.28;101362.78;4915895;28;45514;-68
2022/07/27 10:45:56;;;;;;;;;10.33;7.00;;;;;25.91;33.71;101364.50;4903280;28;45420;-66
2022/07/27 10:48:38;;;;;;;;;7.33;6.67;;;;;25.96;33.50;101358.03;4923649;28;45480;-68
2022/07/27 10:51:08;;;;;;;;;5.33;5.33;;;;;26.02;33.27;101353.28;4915679;28;46618;-68
2022/07/27 10:53:36;;;;;;;;;8.00;6.00;;;;;26.08;33.76;101346.72;4915585;28;45762;-71
2022/07/27 10:56:03;;;;;;;;;12.67;12.67;;;;;25.95;33.62;101318.75;4915710;28;45578;-67
2022/07/27 10:58:28;;;;;;;;;13.00;9.00;;;;;26.21;33.23;101350.91;4915727;28;45486;-71
2022/07/27 11:00:53;;;;;;;;;3.00;3.00;;;;;26.23;33.20;101338.09;4915623;28;45346;-69
2022/07/27 11:03:35;;;;;;;;;6.67;4.67;;;;;26.26;32.75;101343.44;4915481;28;45396;-65
2022/07/27 11:06:02;;;;;;;;;76.00;60.75;;;;;26.34;33.05;101336.84;4918930;28;45496;-69
2022/07/27 11:08:32;;;;;;;;;6.33;5.00;;;;;26.39;32.44;101341.25;4927051;28;45569;-70
2022/07/27 11:10:59;;;;;;;;;7.67;6.33;;;;;26.34;32.39;101336.84;4917743;28;45372;-61
2022/07/27 11:13:26;;;;;;;;;8.00;7.33;;;;;26.36;32.00;101327.63;4916486;28;45493;-72
2022/07/27 11:15:57;;;;;;;;;7.00;3.67;;;;;26.00;31.77;101263.91;4916441;28;45393;-70
2022/07/27 11:18:32;;;;;;;;;6.33;5.67;;;;;26.34;32.15;101326.78;4929399;28;45557;-73
2022/07/27 11:21:16;;;;;;;;;5.00;5.00;;;;;26.39;31.52;101334.88;4915162;28;46213;-67
2022/07/27 11:23:44;;;;;;;;;5.00;3.67;;;;;26.32;31.91;101308.63;4915172;28;45558;-69
2022/07/27 11:26:10;;;;;;;;;4.00;4.00;;;;;26.46;31.56;101310.00;4915895;28;45514;-66
2022/07/27 11:28:36;;;;;;;;;4.00;2.33;;;;;26.49;31.20;101317.19;4915128;28;45509;-67